Time;durP1;ratioP1;P1;durP2;ratioP2;P2;SDS_P1;SDS_P2;PMS_P1;PMS_P2;Temp;Humidity;BMP_temperature;BMP_pressure;BME280_temperature;BME280_humidity;BME280_pressure;Samples;Min_cycle;Max_cycle;Signal;HPM_P1;HPM_P2
2022/02/26 00:00:42;;;;;;;2.33;0.67;;;4.50;99.90;;;;;;5026187;28;20269;-85
2022/02/26 00:03:07;;;;;;;0.10;0.10;;;4.30;99.90;;;;;;5024735;28;20243;-85
2022/02/26 00:05:33;;;;;;;0.87;0.87;;;4.40;99.90;;;;;;5025165;28;20567;-84
2022/02/26 00:07:59;;;;;;;0.37;0.17;;;4.30;99.90;;;;;;5023095;28;20574;-85
2022/02/26 00:10:25;;;;;;;0.27;0.27;;;4.30;99.90;;;;;;5023359;28;20188;-86
2022/02/26 00:12:52;;;;;;;0.73;0.27;;;4.30;99.90;;;;;;5026041;28;20762;-86
2022/02/26 00:15:19;;;;;;;0.20;0.20;;;4.20;99.90;;;;;;5025974;28;20674;-86
2022/02/26 00:17:45;;;;;;;0.30;0.10;;;4.20;99.90;;;;;;5024538;28;20246;-85
2022/02/26 00:20:11;;;;;;;0.20;0.20;;;4.20;99.90;;;;;;5022377;28;20549;-86
2022/02/26 00:22:36;;;;;;;0.40;0.40;;;4.20;99.90;;;;;;5024524;28;20186;-85
2022/02/26 00:25:03;;;;;;;0.10;0.10;;;4.10;99.90;;;;;;5025472;28;20182;-85
2022/02/26 00:27:29;;;;;;;1.40;0.77;;;4.10;99.90;;;;;;5025182;28;20291;-85
2022/02/26 00:29:55;;;;;;;0.27;0.20;;;4.10;99.90;;;;;;5025336;28;20276;-85
2022/02/26 00:32:20;;;;;;;0.30;0.30;;;4.20;99.90;;;;;;5023482;28;20251;-85
2022/02/26 00:34:46;;;;;;;0.10;0.10;;;4.10;99.90;;;;;;5027904;28;20709;-85
2022/02/26 00:37:11;;;;;;;0.57;0.30;;;4.20;99.90;;;;;;5025836;28;20185;-86
2022/02/26 00:39:37;;;;;;;0.57;0.53;;;4.10;99.90;;;;;;5027142;28;20557;-85
2022/02/26 00:42:03;;;;;;;0.23;0.23;;;4.10;99.90;;;;;;5022786;28;20177;-85
2022/02/26 00:44:29;;;;;;;0.33;0.33;;;4.20;99.90;;;;;;5025257;28;20188;-86
2022/02/26 00:46:55;;;;;;;0.57;0.47;;;4.30;99.90;;;;;;5023571;28;20197;-85
2022/02/26 00:52:05;;;;;;;1.80;0.20;;;4.40;99.90;;;;;;5027843;28;20250;-86
2022/02/26 00:54:31;;;;;;;0.30;0.30;;;4.40;99.90;;;;;;5025632;28;20680;-84
2022/02/26 00:56:56;;;;;;;0.20;0.20;;;4.30;99.90;;;;;;5022852;28;20200;-85
2022/02/26 00:59:22;;;;;;;0.20;0.20;;;4.40;99.90;;;;;;5023507;28;20185;-86
2022/02/26 01:01:47;;;;;;;0.73;0.23;;;4.40;99.90;;;;;;5025135;28;20185;-86
2022/02/26 01:04:14;;;;;;;0.10;0.10;;;4.40;99.90;;;;;;5021937;28;20190;-85
2022/02/26 01:06:40;;;;;;;0.10;0.10;;;4.30;99.90;;;;;;5026102;28;20204;-86
2022/02/26 01:09:06;;;;;;;0.40;0.40;;;4.30;99.90;;;;;;5023601;28;20214;-85
2022/02/26 01:11:32;;;;;;;0.23;0.23;;;4.30;99.90;;;;;;5026371;28;20206;-86
2022/02/26 01:14:00;;;;;;;0.50;0.33;;;4.30;99.90;;;;;;5025927;28;20212;-85
2022/02/26 01:16:26;;;;;;;0.23;0.23;;;4.20;99.90;;;;;;5020938;28;20182;-85
2022/02/26 01:18:53;;;;;;;0.20;0.20;;;4.10;99.90;;;;;;5021680;28;20244;-85
2022/02/26 01:21:20;;;;;;;0.67;0.40;;;4.10;99.90;;;;;;5022740;28;20656;-86
2022/02/26 01:23:45;;;;;;;0.10;0.10;;;4.20;99.90;;;;;;5023037;28;20205;-84
2022/02/26 01:26:11;;;;;;;0.27;0.27;;;4.20;99.90;;;;;;5025631;28;20392;-85
2022/02/26 01:28:37;;;;;;;0.23;0.23;;;4.20;99.90;;;;;;5023804;28;20209;-86
2022/02/26 01:31:03;;;;;;;0.10;0.10;;;4.20;99.90;;;;;;5020207;28;20754;-86
2022/02/26 01:33:28;;;;;;;0.53;0.53;;;4.10;99.90;;;;;;5022218;28;20217;-84
2022/02/26 01:35:54;;;;;;;1.60;0.53;;;4.10;99.90;;;;;;5022716;28;20188;-86
2022/02/26 01:38:19;;;;;;;0.30;0.10;;;4.10;99.90;;;;;;5024611;28;20208;-86
2022/02/26 01:40:45;;;;;;;0.20;0.20;;;4.10;99.90;;;;;;5024759;28;20184;-85
2022/02/26 01:43:10;;;;;;;0.10;0.10;;;4.00;99.90;;;;;;5024037;28;20198;-86
2022/02/26 01:45:36;;;;;;;0.40;0.40;;;3.90;99.90;;;;;;5026796;28;20255;-86
2022/02/26 01:48:01;;;;;;;0.63;0.63;;;3.90;99.90;;;;;;5024437;28;20255;-86
2022/02/26 01:50:27;;;;;;;0.10;0.10;;;3.80;99.90;;;;;;5025283;28;20225;-86
2022/02/26 01:52:53;;;;;;;1.03;0.57;;;3.70;99.90;;;;;;5021277;28;20201;-85
2022/02/26 01:55:18;;;;;;;0.23;0.23;;;3.70;99.90;;;;;;5020334;28;20195;-85
2022/02/26 01:57:44;;;;;;;0.10;0.10;;;3.60;99.90;;;;;;5021341;28;20211;-85
2022/02/26 02:00:11;;;;;;;0.20;0.20;;;3.60;99.90;;;;;;5024509;28;20700;-86
2022/02/26 02:02:37;;;;;;;0.00;0.00;;;3.60;99.90;;;;;;5022512;28;20187;-85
2022/02/26 02:05:03;;;;;;;0.50;0.50;;;3.70;99.90;;;;;;5024599;28;20208;-85
2022/02/26 02:07:29;;;;;;;0.10;0.10;;;3.60;99.90;;;;;;5022398;28;20198;-85
2022/02/26 02:09:55;;;;;;;0.13;0.13;;;3.70;99.90;;;;;;5024767;28;20560;-85
2022/02/26 02:12:21;;;;;;;0.10;0.10;;;3.80;99.90;;;;;;5022048;28;20930;-85
2022/02/26 02:14:47;;;;;;;0.20;0.20;;;3.80;99.90;;;;;;5023718;28;20243;-84
2022/02/26 02:17:13;;;;;;;0.10;0.10;;;3.90;99.90;;;;;;5019699;28;20262;-85
2022/02/26 02:19:39;;;;;;;0.10;0.10;;;4.00;99.90;;;;;;5023676;28;20186;-86
2022/02/26 02:22:06;;;;;;;0.10;0.10;;;4.00;99.90;;;;;;5024042;28;20284;-86
2022/02/26 02:24:32;;;;;;;0.10;0.10;;;4.10;99.90;;;;;;5022480;28;20693;-86
2022/02/26 02:27:01;;;;;;;0.80;0.40;;;4.10;99.90;;;;;;5023032;28;20238;-85
2022/02/26 02:29:27;;;;;;;0.27;0.27;;;4.20;99.90;;;;;;5021187;28;20186;-85
2022/02/26 02:31:53;;;;;;;0.10;0.10;;;4.00;99.90;;;;;;5024301;28;20267;-85
2022/02/26 02:34:19;;;;;;;0.90;0.87;;;3.90;99.90;;;;;;5022160;28;20440;-85
2022/02/26 02:36:46;;;;;;;0.13;0.13;;;4.00;99.90;;;;;;5020163;28;20199;-85
2022/02/26 02:39:13;;;;;;;0.13;0.13;;;4.00;99.90;;;;;;5024308;28;20232;-85
2022/02/26 02:41:39;;;;;;;0.40;0.40;;;4.00;99.90;;;;;;5020838;28;20182;-85
2022/02/26 02:44:06;;;;;;;0.93;0.67;;;4.00;99.90;;;;;;5024634;28;20248;-86
2022/02/26 02:46:32;;;;;;;0.30;0.27;;;4.00;99.90;;;;;;5023526;28;20948;-85
2022/02/26 02:48:58;;;;;;;4.33;1.83;;;4.00;99.90;;;;;;5025647;28;20256;-85
2022/02/26 02:51:23;;;;;;;0.20;0.20;;;4.00;99.90;;;;;;5021244;28;20182;-86
2022/02/26 02:53:49;;;;;;;1.03;0.43;;;3.90;99.90;;;;;;5024278;28;20208;-86
2022/02/26 02:56:14;;;;;;;0.10;0.10;;;3.80;99.90;;;;;;5020579;28;20252;-85
2022/02/26 02:58:40;;;;;;;0.23;0.23;;;3.90;99.90;;;;;;5024678;28;20205;-84
2022/02/26 03:01:05;;;;;;;0.57;0.50;;;3.90;99.90;;;;;;5022954;28;20190;-85
2022/02/26 03:03:31;;;;;;;0.20;0.20;;;3.80;99.90;;;;;;5020889;28;20188;-85
2022/02/26 03:05:57;;;;;;;0.00;0.00;;;3.80;99.90;;;;;;5024330;28;20209;-85
2022/02/26 03:08:24;;;;;;;0.60;0.20;;;3.80;99.90;;;;;;5022670;28;20304;-86
2022/02/26 03:10:54;;;;;;;0.10;0.10;;;3.60;99.90;;;;;;5021559;28;20188;-86
2022/02/26 03:13:21;;;;;;;0.10;0.10;;;3.50;99.90;;;;;;5024609;28;20212;-86
2022/02/26 03:15:51;;;;;;;0.10;0.10;;;3.40;99.90;;;;;;5021807;28;20204;-85
2022/02/26 03:18:18;;;;;;;0.20;0.20;;;3.30;99.90;;;;;;5023591;28;20213;-85
2022/02/26 03:20:44;;;;;;;0.87;0.87;;;3.30;99.90;;;;;;5021743;28;20266;-86
2022/02/26 03:23:09;;;;;;;0.40;0.40;;;3.10;99.90;;;;;;5021461;28;21349;-86
2022/02/26 03:28:57;;;;;;;0.10;0.10;;;3.10;99.90;;;;;;5024231;28;20219;-85
2022/02/26 03:31:23;;;;;;;0.10;0.10;;;3.10;99.90;;;;;;5025288;28;20196;-85
2022/02/26 03:33:48;;;;;;;0.93;0.93;;;3.10;99.90;;;;;;5027232;28;20223;-85
2022/02/26 03:36:14;;;;;;;0.10;0.10;;;3.10;99.90;;;;;;5026033;28;20230;-85
2022/02/26 03:38:42;;;;;;;0.10;0.10;;;3.10;99.90;;;;;;5026657;28;20279;-86
2022/02/26 03:41:13;;;;;;;0.50;0.33;;;3.20;99.90;;;;;;5025999;28;20194;-86
2022/02/26 03:43:39;;;;;;;0.20;0.20;;;3.30;99.90;;;;;;5024110;28;20592;-85
2022/02/26 03:46:05;;;;;;;0.40;0.30;;;3.30;99.90;;;;;;5026896;28;20215;-86
2022/02/26 03:48:31;;;;;;;0.10;0.10;;;3.20;99.90;;;;;;5027870;28;20207;-86
2022/02/26 03:51:03;;;;;;;2.93;0.97;;;3.20;99.90;;;;;;5025061;28;20231;-84
2022/02/26 03:53:32;;;;;;;0.43;0.43;;;3.20;99.90;;;;;;5023298;28;20202;-86
2022/02/26 03:56:01;;;;;;;0.27;0.27;;;3.20;99.90;;;;;;5025857;28;20228;-85
2022/02/26 03:58:26;;;;;;;0.30;0.20;;;3.20;99.90;;;;;;5025931;28;20208;-86
2022/02/26 04:00:52;;;;;;;0.10;0.10;;;3.20;99.90;;;;;;5026569;28;20191;-85
2022/02/26 04:03:17;;;;;;;0.10;0.10;;;3.20;99.90;;;;;;5025874;28;20230;-85
2022/02/26 04:05:43;;;;;;;2.83;0.47;;;3.20;99.90;;;;;;5025642;28;20196;-85
2022/02/26 04:08:08;;;;;;;0.17;0.17;;;3.10;99.90;;;;;;5023917;28;20253;-86
2022/02/26 04:10:34;;;;;;;0.63;0.63;;;3.10;99.90;;;;;;5025705;28;20210;-86
2022/02/26 04:12:59;;;;;;;0.30;0.30;;;3.10;99.90;;;;;;5025329;28;20338;-86
2022/02/26 04:15:25;;;;;;;0.20;0.20;;;3.00;99.90;;;;;;5025195;28;20186;-86
2022/02/26 04:17:50;;;;;;;0.20;0.20;;;3.00;99.90;;;;;;5026972;28;20203;-86
2022/02/26 04:20:16;;;;;;;2.33;0.83;;;3.00;99.90;;;;;;5024405;28;20180;-85
2022/02/26 04:22:42;;;;;;;0.60;0.60;;;3.00;99.90;;;;;;5021426;28;20205;-86
2022/02/26 04:25:08;;;;;;;0.27;0.27;;;3.00;99.90;;;;;;5022165;28;20216;-86
2022/02/26 04:27:34;;;;;;;0.80;0.80;;;2.90;99.90;;;;;;5025612;28;20587;-86
2022/02/26 04:30:00;;;;;;;0.50;0.20;;;2.70;99.90;;;;;;5025516;28;20188;-86
2022/02/26 04:32:27;;;;;;;0.50;0.50;;;2.30;99.90;;;;;;5027044;28;20192;-85
2022/02/26 04:34:53;;;;;;;0.30;0.30;;;2.30;99.90;;;;;;5025183;28;20235;-86
2022/02/26 04:37:20;;;;;;;0.50;0.50;;;2.20;99.90;;;;;;5026163;28;20227;-85
2022/02/26 04:39:47;;;;;;;0.10;0.10;;;2.20;99.90;;;;;;5026767;28;20650;-86
2022/02/26 04:42:13;;;;;;;2.57;0.30;;;2.20;99.90;;;;;;5026151;28;20194;-86
2022/02/26 04:44:38;;;;;;;0.23;0.23;;;2.10;99.90;;;;;;5025863;28;20188;-85
2022/02/26 04:47:04;;;;;;;2.10;1.00;;;2.10;99.90;;;;;;5026925;28;20182;-86
2022/02/26 04:49:30;;;;;;;0.43;0.40;;;2.10;99.90;;;;;;5026863;28;20270;-85
2022/02/26 04:51:55;;;;;;;0.40;0.40;;;2.20;99.90;;;;;;5026357;28;20914;-84
2022/02/26 04:54:20;;;;;;;0.10;0.10;;;2.20;99.90;;;;;;5024487;28;20205;-86
2022/02/26 04:56:46;;;;;;;0.30;0.30;;;2.30;99.90;;;;;;5026915;28;20269;-85
2022/02/26 04:59:12;;;;;;;1.33;0.17;;;2.30;99.90;;;;;;5022918;28;20827;-85
2022/02/26 05:01:37;;;;;;;0.10;0.10;;;2.40;99.90;;;;;;5027261;28;20307;-86
2022/02/26 05:04:03;;;;;;;1.23;0.60;;;2.40;99.90;;;;;;5024087;28;20711;-86
2022/02/26 05:06:28;;;;;;;0.10;0.10;;;2.30;99.90;;;;;;5022888;28;20274;-85
2022/02/26 05:08:54;;;;;;;0.30;0.30;;;2.20;99.90;;;;;;5023427;28;20237;-86
2022/02/26 05:11:20;;;;;;;0.53;0.40;;;2.20;99.90;;;;;;5021817;28;20245;-85
2022/02/26 05:13:45;;;;;;;1.60;1.07;;;2.20;99.90;;;;;;5025252;28;21174;-86
2022/02/26 05:16:11;;;;;;;0.57;0.27;;;2.10;99.90;;;;;;5023197;28;20188;-85
2022/02/26 05:18:38;;;;;;;0.20;0.20;;;2.00;99.90;;;;;;5021742;28;20692;-86
2022/02/26 05:21:04;;;;;;;0.20;0.20;;;1.80;99.90;;;;;;5023732;28;20269;-86
2022/02/26 05:23:29;;;;;;;1.90;0.37;;;1.70;99.90;;;;;;5024827;28;20302;-86
2022/02/26 05:25:55;;;;;;;0.10;0.10;;;1.70;99.90;;;;;;5022632;28;20195;-85
2022/02/26 05:28:21;;;;;;;0.20;0.20;;;1.80;99.90;;;;;;5024831;28;20216;-85
2022/02/26 05:30:47;;;;;;;0.00;0.00;;;1.90;99.90;;;;;;5022380;28;20215;-84
2022/02/26 05:33:12;;;;;;;2.37;0.40;;;1.90;99.90;;;;;;5020996;28;20326;-83
2022/02/26 05:35:38;;;;;;;0.53;0.43;;;1.90;99.90;;;;;;5037447;28;20249;-84
2022/02/26 05:38:03;;;;;;;0.20;0.20;;;1.90;99.90;;;;;;5024770;28;20207;-85
2022/02/26 05:40:29;;;;;;;0.10;0.10;;;2.00;99.90;;;;;;5027969;28;20251;-84
2022/02/26 05:42:55;;;;;;;0.10;0.10;;;1.90;99.90;;;;;;5024611;28;20179;-84
2022/02/26 05:45:20;;;;;;;0.40;0.40;;;1.80;99.90;;;;;;5027781;28;20215;-85
2022/02/26 05:47:46;;;;;;;0.10;0.10;;;1.90;99.90;;;;;;5025997;28;20236;-83
2022/02/26 05:50:13;;;;;;;0.10;0.10;;;1.90;99.90;;;;;;5026792;28;20181;-84
2022/02/26 05:52:38;;;;;;;0.10;0.10;;;2.00;99.90;;;;;;5018829;28;20184;-84
2022/02/26 05:55:06;;;;;;;0.43;0.43;;;2.00;99.90;;;;;;5024178;28;20209;-84
2022/02/26 05:57:31;;;;;;;0.20;0.20;;;2.00;99.90;;;;;;5024058;28;20200;-83
2022/02/26 05:59:57;;;;;;;0.30;0.30;;;2.10;99.90;;;;;;5026730;28;20222;-83
2022/02/26 06:02:22;;;;;;;0.20;0.20;;;2.10;99.90;;;;;;5024527;28;20183;-83
2022/02/26 06:04:49;;;;;;;0.20;0.20;;;2.10;99.90;;;;;;5024194;28;20199;-83
2022/02/26 06:07:15;;;;;;;0.10;0.10;;;2.10;99.90;;;;;;5024957;28;20200;-84
2022/02/26 06:09:41;;;;;;;0.30;0.30;;;2.20;99.90;;;;;;5025219;28;20320;-84
2022/02/26 06:12:07;;;;;;;0.33;0.33;;;2.20;99.90;;;;;;5025789;28;20590;-83
2022/02/26 06:14:32;;;;;;;0.37;0.37;;;2.20;99.90;;;;;;5023081;28;20212;-84
2022/02/26 06:16:58;;;;;;;0.10;0.10;;;2.20;99.90;;;;;;5024320;28;20201;-86
2022/02/26 06:19:23;;;;;;;0.33;0.33;;;2.20;99.90;;;;;;5025968;28;20190;-83
2022/02/26 06:21:49;;;;;;;0.23;0.23;;;2.20;99.90;;;;;;5022718;28;20180;-84
2022/02/26 06:24:15;;;;;;;0.50;0.50;;;2.20;99.90;;;;;;5022225;28;20281;-84
2022/02/26 06:26:41;;;;;;;0.20;0.20;;;2.20;99.90;;;;;;5021877;28;20188;-84
2022/02/26 06:29:06;;;;;;;0.10;0.10;;;2.20;99.90;;;;;;5024825;28;20224;-83
2022/02/26 06:31:32;;;;;;;0.10;0.10;;;1.90;99.90;;;;;;5024663;28;20782;-83
2022/02/26 06:33:58;;;;;;;0.20;0.20;;;1.90;99.90;;;;;;5041495;28;20218;-84
2022/02/26 06:36:27;;;;;;;0.20;0.20;;;1.60;99.90;;;;;;5020477;28;20314;-84
2022/02/26 06:38:53;;;;;;;0.10;0.10;;;1.70;99.90;;;;;;5023812;28;20230;-84
2022/02/26 06:41:18;;;;;;;0.10;0.10;;;1.70;99.90;;;;;;5018604;28;20210;-84
2022/02/26 06:43:45;;;;;;;0.20;0.20;;;1.50;99.90;;;;;;5019828;28;20188;-84
2022/02/26 06:46:11;;;;;;;0.20;0.20;;;1.60;99.90;;;;;;5018166;28;21067;-82
2022/02/26 06:48:37;;;;;;;0.37;0.37;;;1.70;99.90;;;;;;5020795;28;20267;-82
2022/02/26 06:51:03;;;;;;;0.67;0.30;;;1.90;99.90;;;;;;5021614;28;20687;-82
2022/02/26 06:53:28;;;;;;;1.03;0.77;;;1.80;99.90;;;;;;5021560;28;20210;-82
2022/02/26 06:55:54;;;;;;;0.50;0.27;;;1.80;99.90;;;;;;5022999;28;20210;-80
2022/02/26 06:58:19;;;;;;;2.87;0.50;;;1.90;99.90;;;;;;5023114;28;20202;-81
2022/02/26 07:00:45;;;;;;;0.23;0.23;;;1.90;99.90;;;;;;5022977;28;20236;-81
2022/02/26 07:03:10;;;;;;;0.20;0.20;;;2.10;99.90;;;;;;5022180;28;20244;-82
2022/02/26 07:05:36;;;;;;;0.80;0.73;;;2.10;99.90;;;;;;5017532;28;20210;-81
2022/02/26 07:08:01;;;;;;;0.40;0.40;;;2.30;99.90;;;;;;5025765;28;20217;-81
2022/02/26 07:10:27;;;;;;;0.50;0.50;;;2.40;99.90;;;;;;5025505;28;20189;-82
2022/02/26 07:12:53;;;;;;;0.10;0.10;;;2.20;99.90;;;;;;5031279;28;20193;-82
2022/02/26 07:15:18;;;;;;;0.10;0.10;;;2.10;99.90;;;;;;5026448;28;20195;-81
2022/02/26 07:17:44;;;;;;;0.30;0.20;;;2.30;99.90;;;;;;5022780;28;20210;-81
2022/02/26 07:20:10;;;;;;;0.63;0.63;;;2.60;99.90;;;;;;5024994;28;20201;-81
2022/02/26 07:22:36;;;;;;;0.43;0.43;;;2.80;99.90;;;;;;5030344;28;20209;-81
2022/02/26 07:25:01;;;;;;;0.40;0.40;;;3.10;99.90;;;;;;5027717;28;20202;-83
2022/02/26 07:27:27;;;;;;;0.87;0.87;;;3.20;99.90;;;;;;5037099;28;20216;-81
2022/02/26 07:29:52;;;;;;;0.50;0.50;;;3.40;99.90;;;;;;5034897;28;20194;-81
2022/02/26 07:32:18;;;;;;;0.10;0.10;;;3.60;99.90;;;;;;5032367;28;20199;-81
2022/02/26 07:34:43;;;;;;;0.10;0.10;;;3.80;99.90;;;;;;5030353;28;20242;-81
2022/02/26 07:37:09;;;;;;;0.10;0.10;;;3.90;99.90;;;;;;5033646;28;20189;-81
2022/02/26 07:39:34;;;;;;;0.57;0.57;;;3.60;99.90;;;;;;5028759;28;20208;-80
2022/02/26 07:42:00;;;;;;;0.87;0.33;;;3.60;99.90;;;;;;5029278;28;20205;-82
2022/02/26 07:44:26;;;;;;;0.30;0.30;;;3.80;99.90;;;;;;5030537;28;20242;-82
2022/02/26 07:46:51;;;;;;;0.20;0.20;;;4.00;99.90;;;;;;5027585;28;20195;-81
2022/02/26 07:49:17;;;;;;;0.50;0.37;;;4.30;99.90;;;;;;5027143;28;20223;-81
2022/02/26 07:51:42;;;;;;;0.30;0.30;;;4.50;99.90;;;;;;5021157;28;20197;-81
2022/02/26 07:54:08;;;;;;;1.00;0.87;;;4.80;99.90;;;;;;5022623;28;20684;-82
2022/02/26 07:56:33;;;;;;;0.20;0.20;;;5.00;99.90;;;;;;5028179;28;20252;-81
2022/02/26 07:58:59;;;;;;;0.40;0.40;;;5.10;99.90;;;;;;5029565;28;20253;-81
2022/02/26 08:01:25;;;;;;;0.30;0.30;;;5.30;99.90;;;;;;5028869;28;20272;-81
2022/02/26 08:03:50;;;;;;;0.20;0.20;;;5.50;99.90;;;;;;5027076;28;20817;-82
2022/02/26 08:06:16;;;;;;;1.97;0.57;;;5.60;99.90;;;;;;5028478;28;20206;-81
2022/02/26 08:08:42;;;;;;;0.30;0.30;;;5.80;99.90;;;;;;5028699;28;20217;-81
2022/02/26 08:11:08;;;;;;;0.63;0.47;;;5.90;99.90;;;;;;5025417;28;20282;-82
2022/02/26 08:13:33;;;;;;;0.50;0.50;;;5.90;99.90;;;;;;5024149;28;20206;-83
2022/02/26 08:15:59;;;;;;;0.17;0.17;;;6.00;99.90;;;;;;5023517;28;20236;-84
2022/02/26 08:18:24;;;;;;;0.57;0.47;;;6.10;99.90;;;;;;5026043;28;20218;-80
2022/02/26 08:20:50;;;;;;;0.30;0.30;;;6.00;99.90;;;;;;5025652;28;20187;-81
2022/02/26 08:23:15;;;;;;;0.20;0.20;;;6.20;99.90;;;;;;5021174;28;20336;-81
2022/02/26 08:25:41;;;;;;;0.73;0.73;;;6.40;99.90;;;;;;5023473;28;20283;-80
2022/02/26 08:28:07;;;;;;;0.60;0.47;;;6.60;99.90;;;;;;5026875;28;20264;-80
2022/02/26 08:30:32;;;;;;;0.30;0.30;;;6.60;99.90;;;;;;5019272;28;20659;-81
2022/02/26 08:32:58;;;;;;;0.87;0.40;;;6.80;99.90;;;;;;5025243;28;20198;-81
2022/02/26 08:35:25;;;;;;;0.40;0.40;;;6.90;99.90;;;;;;5026702;28;20197;-81
2022/02/26 08:37:51;;;;;;;0.30;0.30;;;6.90;99.90;;;;;;5026620;28;20569;-80
2022/02/26 08:40:17;;;;;;;1.17;0.50;;;6.80;99.90;;;;;;5021728;28;20266;-81
2022/02/26 08:42:44;;;;;;;2.63;0.83;;;6.80;99.90;;;;;;5024772;28;20408;-81
2022/02/26 08:45:10;;;;;;;0.70;0.70;;;6.70;99.90;;;;;;5025374;28;20201;-80
2022/02/26 08:47:36;;;;;;;3.27;1.57;;;6.70;99.90;;;;;;5023318;28;20586;-82
2022/02/26 08:50:05;;;;;;;0.83;0.83;;;6.70;99.90;;;;;;5028705;28;20194;-81
2022/02/26 08:52:31;;;;;;;0.20;0.20;;;6.80;99.90;;;;;;5022659;28;20186;-83
2022/02/26 08:54:56;;;;;;;0.90;0.90;;;6.90;99.90;;;;;;5037520;28;20221;-82
2022/02/26 08:57:22;;;;;;;0.57;0.57;;;6.90;99.90;;;;;;5026921;28;20202;-82
2022/02/26 08:59:48;;;;;;;0.30;0.30;;;7.00;99.90;;;;;;5028379;28;20194;-82
2022/02/26 09:02:14;;;;;;;0.93;0.70;;;7.10;99.90;;;;;;5029633;28;20240;-82
2022/02/26 09:04:39;;;;;;;0.13;0.13;;;7.30;99.90;;;;;;5028147;28;20199;-82
2022/02/26 09:07:05;;;;;;;0.30;0.20;;;7.50;99.90;;;;;;5028522;28;20615;-80
2022/02/26 09:09:31;;;;;;;0.20;0.20;;;7.60;99.90;;;;;;5022684;28;20187;-80
2022/02/26 09:11:57;;;;;;;0.23;0.20;;;7.50;99.90;;;;;;5021338;28;20282;-80
2022/02/26 09:14:23;;;;;;;2.53;1.03;;;7.60;99.90;;;;;;5029723;28;20576;-81
2022/02/26 09:16:48;;;;;;;1.20;0.40;;;7.80;99.90;;;;;;5022375;28;20224;-81
2022/02/26 09:19:14;;;;;;;0.57;0.57;;;8.00;99.90;;;;;;5025065;28;20610;-81
2022/02/26 09:21:40;;;;;;;0.20;0.20;;;7.30;99.90;;;;;;5022514;28;20194;-80
2022/02/26 09:24:06;;;;;;;1.07;1.07;;;6.90;99.90;;;;;;5022147;28;20227;-80
2022/02/26 09:26:32;;;;;;;0.67;0.67;;;6.80;99.90;;;;;;5026365;28;20231;-81
2022/02/26 09:28:58;;;;;;;0.43;0.43;;;7.20;99.90;;;;;;5025346;28;20213;-80
2022/02/26 09:31:24;;;;;;;2.00;0.43;;;7.40;99.90;;;;;;5021023;28;20196;-80
2022/02/26 09:33:50;;;;;;;0.20;0.20;;;7.50;99.90;;;;;;5026629;28;20219;-80
2022/02/26 09:36:16;;;;;;;0.13;0.13;;;7.90;99.90;;;;;;5022801;28;20206;-80
2022/02/26 09:38:42;;;;;;;0.63;0.63;;;7.90;99.90;;;;;;5025628;28;20203;-81
2022/02/26 09:41:09;;;;;;;0.30;0.30;;;7.90;99.90;;;;;;5021033;28;20191;-80
2022/02/26 09:43:35;;;;;;;0.10;0.10;;;8.10;99.90;;;;;;5019698;28;20191;-80
2022/02/26 09:46:03;;;;;;;2.53;0.40;;;8.00;99.90;;;;;;5022894;28;20244;-80
2022/02/26 09:48:29;;;;;;;0.13;0.13;;;7.50;99.90;;;;;;5025456;28;20202;-81
2022/02/26 09:50:55;;;;;;;2.43;0.53;;;8.20;99.90;;;;;;5028597;28;20186;-80
2022/02/26 09:53:21;;;;;;;0.37;0.37;;;8.40;99.90;;;;;;5023482;28;20221;-81
2022/02/26 09:55:50;;;;;;;0.30;0.30;;;7.80;99.90;;;;;;5027120;28;20184;-80
2022/02/26 09:58:15;;;;;;;0.13;0.13;;;8.00;99.90;;;;;;5025908;28;20210;-81
2022/02/26 10:00:45;;;;;;;0.50;0.30;;;8.40;99.90;;;;;;5020796;28;20192;-82
2022/02/26 10:03:27;;;;;;;0.40;0.40;;;8.50;99.90;;;;;;5026239;28;20864;-81
2022/02/26 10:06:09;;;;;;;0.10;0.10;;;7.80;99.90;;;;;;5025094;28;20199;-81
2022/02/26 10:08:40;;;;;;;0.20;0.20;;;7.80;99.90;;;;;;5023678;28;20269;-80
2022/02/26 10:11:20;;;;;;;0.10;0.10;;;7.40;99.90;;;;;;5027852;28;20175;-80
2022/02/26 10:13:45;;;;;;;1.27;1.17;;;7.30;99.90;;;;;;5025649;28;20209;-80
2022/02/26 10:16:11;;;;;;;0.33;0.27;;;7.00;99.90;;;;;;5023629;28;20193;-80
2022/02/26 10:18:36;;;;;;;0.40;0.40;;;7.30;99.90;;;;;;5021737;28;20246;-80
2022/02/26 10:21:02;;;;;;;0.83;0.30;;;8.00;99.90;;;;;;5024834;28;20187;-80
2022/02/26 10:23:28;;;;;;;0.10;0.10;;;8.10;99.90;;;;;;5020122;28;20192;-80
2022/02/26 10:26:11;;;;;;;0.10;0.10;;;8.50;99.90;;;;;;5024860;28;20176;-80
2022/02/26 10:28:41;;;;;;;0.10;0.10;;;8.70;99.90;;;;;;5023388;28;20206;-80
2022/02/26 10:31:08;;;;;;;0.33;0.33;;;8.90;99.90;;;;;;5023636;28;20215;-80
2022/02/26 10:33:34;;;;;;;0.80;0.30;;;8.60;99.90;;;;;;5026527;28;20236;-82
2022/02/26 10:36:07;;;;;;;0.20;0.20;;;8.80;99.90;;;;;;5025764;28;20186;-82
2022/02/26 10:38:34;;;;;;;0.10;0.10;;;8.90;99.90;;;;;;5024717;28;20278;-83
2022/02/26 10:41:06;;;;;;;1.47;0.33;;;9.00;99.90;;;;;;5025981;28;20573;-83
2022/02/26 10:43:40;;;;;;;8.10;0.30;;;8.90;99.90;;;;;;5030550;28;20209;-84
2022/02/26 10:46:21;;;;;;;0.10;0.10;;;8.80;99.90;;;;;;5025858;28;20215;-83
2022/02/26 10:48:49;;;;;;;0.57;0.40;;;9.10;99.90;;;;;;5026280;28;20623;-83
2022/02/26 10:51:20;;;;;;;0.30;0.30;;;8.50;99.90;;;;;;5023571;28;20187;-84
2022/02/26 10:53:46;;;;;;;0.10;0.10;;;8.90;99.90;;;;;;5023294;28;20218;-84
2022/02/26 10:56:13;;;;;;;0.33;0.33;;;9.00;99.90;;;;;;5023926;28;20235;-84
2022/02/26 10:58:40;;;;;;;0.30;0.30;;;9.00;99.90;;;;;;5022851;28;20280;-84
2022/02/26 11:01:08;;;;;;;0.10;0.10;;;9.30;99.90;;;;;;5020997;28;20232;-81
2022/02/26 11:03:34;;;;;;;0.20;0.20;;;9.40;99.90;;;;;;5026894;28;20218;-82
2022/02/26 11:06:01;;;;;;;0.10;0.10;;;9.50;99.90;;;;;;5023766;28;20212;-82
2022/02/26 11:08:28;;;;;;;1.03;0.20;;;9.80;99.90;;;;;;5026296;28;20228;-82
2022/02/26 11:10:54;;;;;;;0.20;0.20;;;10.10;99.90;;;;;;5025223;28;20182;-81
2022/02/26 11:13:21;;;;;;;0.10;0.10;;;10.10;99.90;;;;;;5022469;28;20713;-81
2022/02/26 11:15:48;;;;;;;0.10;0.10;;;10.20;99.90;;;;;;5025077;28;20289;-82
2022/02/26 11:18:17;;;;;;;0.47;0.47;;;10.40;99.90;;;;;;5021259;28;20616;-82
2022/02/26 11:20:43;;;;;;;0.63;0.27;;;10.10;99.90;;;;;;5025327;28;20198;-82
2022/02/26 11:23:08;;;;;;;0.20;0.20;;;10.20;99.90;;;;;;5024998;28;20187;-81
2022/02/26 11:25:34;;;;;;;0.10;0.10;;;10.40;99.90;;;;;;5024800;28;20191;-81
2022/02/26 11:28:00;;;;;;;1.40;0.30;;;9.30;99.90;;;;;;5023523;28;20224;-82
2022/02/26 11:30:32;;;;;;;0.13;0.13;;;9.70;99.90;;;;;;5016093;28;20194;-80
2022/02/26 11:32:57;;;;;;;1.00;0.47;;;10.00;99.90;;;;;;5021958;28;20191;-81
2022/02/26 11:35:28;;;;;;;0.70;0.70;;;10.10;99.90;;;;;;5027426;28;20262;-81
2022/02/26 11:38:05;;;;;;;0.10;0.10;;;10.00;99.90;;;;;;5026259;28;20213;-81
2022/02/26 11:40:31;;;;;;;0.40;0.27;;;10.20;99.90;;;;;;5026827;28;20269;-81
2022/02/26 11:42:57;;;;;;;1.27;0.67;;;10.20;99.90;;;;;;5026765;28;20186;-81
2022/02/26 11:45:29;;;;;;;0.10;0.10;;;10.10;99.90;;;;;;5025916;28;20200;-82
2022/02/26 11:48:08;;;;;;;0.93;0.87;;;10.40;99.90;;;;;;5029313;28;20293;-81
2022/02/26 11:50:42;;;;;;;0.57;0.57;;;9.60;99.90;;;;;;5029905;28;20720;-81
2022/02/26 11:53:08;;;;;;;0.17;0.17;;;9.10;99.90;;;;;;5027724;28;20197;-81
2022/02/26 11:55:40;;;;;;;0.10;0.10;;;8.70;99.90;;;;;;5029845;28;20182;-81
2022/02/26 11:58:09;;;;;;;0.27;0.23;;;9.50;99.90;;;;;;5024918;28;20213;-81
2022/02/26 12:00:51;;;;;;;0.30;0.30;;;9.50;99.90;;;;;;5028960;28;20190;-81
2022/02/26 12:03:23;;;;;;;0.10;0.10;;;9.60;99.90;;;;;;5027232;28;20189;-81
2022/02/26 12:05:53;;;;;;;0.40;0.40;;;9.70;99.90;;;;;;5023768;28;20197;-82
2022/02/26 12:08:33;;;;;;;0.10;0.10;;;9.00;99.90;;;;;;5029003;28;20207;-81
2022/02/26 12:10:58;;;;;;;0.10;0.10;;;9.00;99.90;;;;;;5027955;28;20246;-82
2022/02/26 12:13:32;;;;;;;0.10;0.10;;;9.20;99.90;;;;;;5025428;28;20217;-85
2022/02/26 12:16:20;;;;;;;0.10;0.10;;;9.40;99.90;;;;;;5023751;28;20219;-85
2022/02/26 12:18:59;;;;;;;0.57;0.57;;;9.50;99.90;;;;;;5026323;28;20209;-82
2022/02/26 12:21:43;;;;;;;0.63;0.20;;;10.20;99.90;;;;;;5027791;28;20191;-81
2022/02/26 12:24:14;;;;;;;0.43;0.43;;;10.60;99.90;;;;;;5027824;28;20193;-82
2022/02/26 12:27:02;;;;;;;0.57;0.13;;;11.00;99.90;;;;;;5023290;28;20556;-83
2022/02/26 12:29:43;;;;;;;0.10;0.10;;;10.90;99.90;;;;;;5026033;28;20738;-83
2022/02/26 12:32:20;;;;;;;0.10;0.10;;;10.80;99.90;;;;;;5026334;28;20236;-83
2022/02/26 12:35:09;;;;;;;0.10;0.10;;;10.70;99.90;;;;;;5027425;28;20304;-84
2022/02/26 12:37:42;;;;;;;0.43;0.10;;;10.50;99.90;;;;;;5028008;28;20213;-83
2022/02/26 12:40:09;;;;;;;0.20;0.20;;;10.00;99.90;;;;;;5026279;28;20209;-83
2022/02/26 12:42:43;;;;;;;0.10;0.10;;;9.50;99.90;;;;;;5036520;28;20197;-83
2022/02/26 12:45:13;;;;;;;0.10;0.10;;;9.00;99.90;;;;;;5030436;28;20193;-83
2022/02/26 12:47:40;;;;;;;0.00;0.00;;;9.00;99.90;;;;;;5031314;28;20213;-83
2022/02/26 12:50:09;;;;;;;0.10;0.10;;;9.10;99.90;;;;;;5026336;28;20197;-82
2022/02/26 12:52:38;;;;;;;1.03;0.20;;;9.20;99.90;;;;;;5029774;28;20285;-82
2022/02/26 12:55:15;;;;;;;0.40;0.30;;;9.80;99.90;;;;;;5030999;28;20210;-82
2022/02/26 12:57:44;;;;;;;0.20;0.13;;;9.90;99.90;;;;;;5026495;28;20206;-83
2022/02/26 13:00:13;;;;;;;0.20;0.20;;;10.20;99.90;;;;;;5029196;28;20198;-83